Time;durP1;ratioP1;P1;durP2;ratioP2;P2;SDS_P1;SDS_P2;PMS_P1;PMS_P2;Temp;Humidity;BMP_temperature;BMP_pressure;BME280_temperature;BME280_humidity;BME280_pressure;Samples;Min_cycle;Max_cycle;Signal;HPM_P1;HPM_P2
2022/10/13 00:03:31;;;;;;;13.60;12.23;;;;;;;;;;10184765;28;20415;-66
2022/10/13 00:08:28;;;;;;;16.42;13.23;;;;;;;;;;10185624;28;20058;-67
2022/10/13 00:13:26;;;;;;;15.68;12.95;;;;;;;;;;10180147;28;20042;-67
2022/10/13 00:18:22;;;;;;;12.90;11.70;;;;;;;;;;10184661;28;20046;-66
2022/10/13 00:23:18;;;;;;;13.68;12.05;;;;;;;;;;10164421;28;20053;-66
2022/10/13 00:28:16;;;;;;;14.30;12.93;;;;;;;;;;10186308;28;20037;-66
2022/10/13 00:33:13;;;;;;;14.68;13.40;;;;;;;;;;10186839;28;20057;-66
2022/10/13 00:38:09;;;;;;;15.40;13.60;;;;;;;;;;10186782;28;20076;-68
2022/10/13 00:43:13;;;;;;;13.65;12.38;;;;;;;;;;10173212;28;20045;-67
2022/10/13 00:48:09;;;;;;;20.25;12.23;;;;;;;;;;10183603;28;20416;-66
2022/10/13 00:53:06;;;;;;;15.75;13.82;;;;;;;;;;10187435;28;20545;-66
2022/10/13 00:58:05;;;;;;;22.05;13.23;;;;;;;;;;10188509;28;20049;-67
2022/10/13 01:03:02;;;;;;;14.35;12.95;;;;;;;;;;10185064;28;20532;-68
2022/10/13 01:07:58;;;;;;;13.93;12.32;;;;;;;;;;10182174;28;20053;-67
2022/10/13 01:13:10;;;;;;;16.83;13.55;;;;;;;;;;10186053;28;20432;-67
2022/10/13 01:18:07;;;;;;;16.50;14.77;;;;;;;;;;10189654;28;20129;-67
2022/10/13 01:23:22;;;;;;;16.98;14.45;;;;;;;;;;10186352;28;20460;-68
2022/10/13 01:28:38;;;;;;;17.42;14.45;;;;;;;;;;10190536;28;20691;-68
2022/10/13 01:33:42;;;;;;;16.23;13.75;;;;;;;;;;10170431;28;20041;-67
2022/10/13 01:38:43;;;;;;;17.40;15.68;;;;;;;;;;10186079;28;20053;-66
2022/10/13 01:43:43;;;;;;;16.50;14.90;;;;;;;;;;10181712;28;20511;-67
2022/10/13 01:48:41;;;;;;;16.67;15.20;;;;;;;;;;10190143;28;20050;-67
2022/10/13 01:53:38;;;;;;;17.70;16.20;;;;;;;;;;10192955;28;20578;-66
2022/10/13 01:58:35;;;;;;;16.65;15.25;;;;;;;;;;10186953;28;20122;-67
2022/10/13 02:03:37;;;;;;;20.30;16.27;;;;;;;;;;10180520;28;20042;-66
2022/10/13 02:08:39;;;;;;;19.58;18.08;;;;;;;;;;10185952;28;20064;-66
2022/10/13 02:13:36;;;;;;;18.93;17.37;;;;;;;;;;10189976;28;20050;-66
2022/10/13 02:18:33;;;;;;;19.67;17.95;;;;;;;;;;10182097;28;20049;-67
2022/10/13 02:23:30;;;;;;;21.45;19.67;;;;;;;;;;10188658;28;20042;-67
2022/10/13 02:28:26;;;;;;;21.02;19.48;;;;;;;;;;10182632;28;20057;-67
2022/10/13 02:33:23;;;;;;;22.27;20.40;;;;;;;;;;10184542;28;20049;-66
2022/10/13 02:38:19;;;;;;;22.33;20.60;;;;;;;;;;10185136;28;20054;-66
2022/10/13 02:43:15;;;;;;;23.27;21.27;;;;;;;;;;10179320;28;20515;-67
2022/10/13 02:48:11;;;;;;;23.60;21.45;;;;;;;;;;10178513;28;20054;-67
2022/10/13 02:53:08;;;;;;;24.05;22.00;;;;;;;;;;10185745;28;20455;-67
2022/10/13 02:58:04;;;;;;;25.10;22.95;;;;;;;;;;10179940;28;20057;-67
2022/10/13 03:03:00;;;;;;;26.35;24.13;;;;;;;;;;10181034;28;20053;-66
2022/10/13 03:07:56;;;;;;;24.08;22.38;;;;;;;;;;10183821;28;20046;-66
2022/10/13 03:12:53;;;;;;;25.60;23.58;;;;;;;;;;10183138;28;20052;-66
2022/10/13 03:17:50;;;;;;;25.15;23.35;;;;;;;;;;10183167;28;20049;-66
2022/10/13 03:22:46;;;;;;;24.05;22.25;;;;;;;;;;10183939;28;20046;-66
2022/10/13 03:27:45;;;;;;;22.38;20.20;;;;;;;;;;10177395;28;20105;-66
2022/10/13 03:32:41;;;;;;;20.33;18.85;;;;;;;;;;10185613;28;20511;-66
2022/10/13 03:37:37;;;;;;;22.80;20.90;;;;;;;;;;10186435;28;20057;-66
2022/10/13 03:42:37;;;;;;;24.40;22.23;;;;;;;;;;10187117;28;20137;-66
2022/10/13 03:47:34;;;;;;;23.50;21.50;;;;;;;;;;10185583;28;20058;-66
2022/10/13 03:52:30;;;;;;;23.80;21.88;;;;;;;;;;10180769;28;20046;-66
2022/10/13 03:57:26;;;;;;;25.20;23.33;;;;;;;;;;10187475;28;20049;-66
2022/10/13 04:02:22;;;;;;;24.60;22.02;;;;;;;;;;10176960;28;20054;-67
2022/10/13 04:07:19;;;;;;;26.25;24.02;;;;;;;;;;10187201;28;20088;-68
2022/10/13 04:12:15;;;;;;;26.42;24.48;;;;;;;;;;10183704;28;20045;-68
2022/10/13 04:17:16;;;;;;;25.67;23.60;;;;;;;;;;10182599;28;20120;-68
2022/10/13 04:22:12;;;;;;;25.38;23.38;;;;;;;;;;10170800;28;20046;-68
2022/10/13 04:27:09;;;;;;;24.95;23.15;;;;;;;;;;10170973;28;20041;-68
2022/10/13 04:32:05;;;;;;;23.85;21.83;;;;;;;;;;10170563;28;20053;-67
2022/10/13 04:37:01;;;;;;;24.23;22.25;;;;;;;;;;10175012;28;20058;-68
2022/10/13 04:41:57;;;;;;;24.88;22.73;;;;;;;;;;10182767;28;20053;-68
2022/10/13 04:46:54;;;;;;;27.25;24.25;;;;;;;;;;10180021;28;20047;-67
2022/10/13 04:51:50;;;;;;;29.75;26.83;;;;;;;;;;10183908;28;20519;-67
2022/10/13 04:56:46;;;;;;;29.13;26.58;;;;;;;;;;10187439;28;20061;-67
2022/10/13 05:01:43;;;;;;;29.30;27.13;;;;;;;;;;10200410;28;20045;-67
2022/10/13 05:06:40;;;;;;;31.27;28.83;;;;;;;;;;10201736;28;20042;-67
2022/10/13 05:11:56;;;;;;;31.45;28.73;;;;;;;;;;10196748;28;20093;-67
2022/10/13 05:16:53;;;;;;;32.20;29.65;;;;;;;;;;10190858;28;20042;-68
2022/10/13 05:21:49;;;;;;;32.35;29.65;;;;;;;;;;10186306;28;20042;-68
2022/10/13 05:26:45;;;;;;;34.65;31.67;;;;;;;;;;10179691;28;20584;-68
2022/10/13 05:31:41;;;;;;;35.33;32.67;;;;;;;;;;10186284;28;20054;-68
2022/10/13 05:36:38;;;;;;;35.85;32.60;;;;;;;;;;10177908;28;20494;-69
2022/10/13 05:41:34;;;;;;;33.88;31.20;;;;;;;;;;10186875;28;20053;-69
2022/10/13 05:46:30;;;;;;;35.17;32.55;;;;;;;;;;10189776;28;20041;-68
2022/10/13 05:51:29;;;;;;;34.50;31.45;;;;;;;;;;10186632;28;20749;-68
2022/10/13 05:56:28;;;;;;;33.05;30.50;;;;;;;;;;10181240;28;20081;-68
2022/10/13 06:01:26;;;;;;;33.75;31.35;;;;;;;;;;10186334;28;20740;-68
2022/10/13 06:06:23;;;;;;;34.03;31.05;;;;;;;;;;10187213;28;20464;-68
2022/10/13 06:11:25;;;;;;;;;;;;;;;;;;10185736;28;20065;-68
2022/10/13 06:16:22;;;;;;;35.03;32.42;;;;;;;;;;10186010;28;20242;-68
2022/10/13 06:21:18;;;;;;;35.67;33.03;;;;;;;;;;10187819;28;20042;-68
2022/10/13 06:26:14;;;;;;;35.58;32.72;;;;;;;;;;10186175;28;20057;-68
2022/10/13 06:31:11;;;;;;;35.10;32.03;;;;;;;;;;10183511;28;20053;-69
2022/10/13 06:36:07;;;;;;;36.53;33.72;;;;;;;;;;10187896;28;20058;-68
2022/10/13 06:41:04;;;;;;;37.05;34.28;;;;;;;;;;10183979;28;20053;-68
2022/10/13 06:46:00;;;;;;;33.88;31.23;;;;;;;;;;10185228;28;20049;-68
2022/10/13 06:51:15;;;;;;;33.33;30.38;;;;;;;;;;10182303;28;20041;-68
2022/10/13 06:56:11;;;;;;;32.42;29.95;;;;;;;;;;10188638;28;20053;-68
2022/10/13 07:01:10;;;;;;;33.33;30.73;;;;;;;;;;10188009;28;20077;-69
2022/10/13 07:06:07;;;;;;;32.95;30.05;;;;;;;;;;10186633;28;20554;-68
2022/10/13 07:11:07;;;;;;;33.72;31.02;;;;;;;;;;10184602;28;20516;-68
2022/10/13 07:16:10;;;;;;;34.13;31.40;;;;;;;;;;10184394;28;20057;-69
2022/10/13 07:21:06;;;;;;;35.42;32.55;;;;;;;;;;10179461;28;20042;-68
2022/10/13 07:26:07;;;;;;;33.58;31.30;;;;;;;;;;10183717;28;20053;-69
2022/10/13 07:31:12;;;;;;;32.33;29.67;;;;;;;;;;10183171;28;20068;-68
2022/10/13 07:36:09;;;;;;;30.02;27.50;;;;;;;;;;10182593;28;20050;-68
2022/10/13 07:41:06;;;;;;;49.35;30.63;;;;;;;;;;10183895;28;20046;-68
2022/10/13 07:46:06;;;;;;;30.33;27.83;;;;;;;;;;10174821;28;20042;-69
2022/10/13 07:51:04;;;;;;;32.50;29.20;;;;;;;;;;10167569;28;20051;-69
2022/10/13 07:56:01;;;;;;;29.90;26.83;;;;;;;;;;10175839;28;20049;-68
2022/10/13 08:00:58;;;;;;;29.25;26.38;;;;;;;;;;10180259;28;20058;-68
2022/10/13 08:05:57;;;;;;;26.95;24.52;;;;;;;;;;10176449;28;20408;-68
2022/10/13 08:10:53;;;;;;;27.73;25.02;;;;;;;;;;10169566;28;20062;-68
2022/10/13 08:15:54;;;;;;;28.05;25.27;;;;;;;;;;10177944;28;20053;-69
2022/10/13 08:20:50;;;;;;;29.08;26.45;;;;;;;;;;10176013;28;20042;-68
2022/10/13 08:25:50;;;;;;;29.38;26.67;;;;;;;;;;10174714;28;20500;-69
2022/10/13 08:30:47;;;;;;;28.13;25.88;;;;;;;;;;10182266;28;20042;-68
2022/10/13 08:35:44;;;;;;;27.73;25.13;;;;;;;;;;10181512;28;20053;-68
2022/10/13 08:40:44;;;;;;;26.30;23.52;;;;;;;;;;10183708;28;20050;-69
2022/10/13 08:45:40;;;;;;;28.67;26.13;;;;;;;;;;10181826;28;20077;-68
2022/10/13 08:50:39;;;;;;;28.92;25.92;;;;;;;;;;10182476;28;20045;-69
2022/10/13 08:55:40;;;;;;;27.77;25.10;;;;;;;;;;10181479;28;20046;-69
2022/10/13 09:00:36;;;;;;;29.90;27.23;;;;;;;;;;10169975;28;20660;-68
2022/10/13 09:05:40;;;;;;;28.52;25.80;;;;;;;;;;10184873;28;20045;-69
2022/10/13 09:10:44;;;;;;;28.83;25.38;;;;;;;;;;10183152;28;20050;-69
2022/10/13 09:15:41;;;;;;;27.17;24.25;;;;;;;;;;10178061;28;20052;-69
2022/10/13 09:20:39;;;;;;;27.98;25.50;;;;;;;;;;10185734;28;20053;-69
2022/10/13 09:25:40;;;;;;;27.30;24.63;;;;;;;;;;10180369;28;20041;-69
2022/10/13 09:30:41;;;;;;;27.63;25.05;;;;;;;;;;10179823;28;20049;-68
2022/10/13 09:35:37;;;;;;;25.88;23.50;;;;;;;;;;10185988;28;20077;-68
2022/10/13 09:40:33;;;;;;;27.60;24.92;;;;;;;;;;10190016;28;20049;-69
2022/10/13 09:45:30;;;;;;;27.60;24.10;;;;;;;;;;10186905;28;20049;-69
2022/10/13 09:50:27;;;;;;;27.73;24.77;;;;;;;;;;10176319;28;20045;-69
2022/10/13 09:55:29;;;;;;;27.98;24.02;;;;;;;;;;10181704;28;20519;-68
2022/10/13 10:00:28;;;;;;;25.65;23.08;;;;;;;;;;10181758;28;20046;-68
2022/10/13 10:05:27;;;;;;;25.65;23.23;;;;;;;;;;10176845;28;21535;-69
2022/10/13 10:10:28;;;;;;;26.98;24.23;;;;;;;;;;10179431;28;20683;-68
2022/10/13 10:15:27;;;;;;;25.38;22.67;;;;;;;;;;10174784;28;20046;-68
2022/10/13 10:20:23;;;;;;;26.55;21.88;;;;;;;;;;10172209;28;20535;-68
2022/10/13 10:25:38;;;;;;;23.52;21.23;;;;;;;;;;10169012;28;20037;-69
2022/10/13 10:30:37;;;;;;;23.95;21.42;;;;;;;;;;10163217;28;20050;-68
2022/10/13 10:35:48;;;;;;;25.55;22.17;;;;;;;;;;10165819;28;20629;-70
2022/10/13 10:40:58;;;;;;;28.15;23.13;;;;;;;;;;10171059;28;20050;-69
2022/10/13 10:45:55;;;;;;;24.90;22.65;;;;;;;;;;10161235;28;20042;-68
2022/10/13 10:50:52;;;;;;;23.13;20.95;;;;;;;;;;10157053;28;20057;-68
2022/10/13 10:56:01;;;;;;;25.15;21.85;;;;;;;;;;10165485;28;20407;-68
2022/10/13 11:01:18;;;;;;;24.08;21.52;;;;;;;;;;10179218;28;20038;-69
2022/10/13 11:06:14;;;;;;;25.27;22.02;;;;;;;;;;10168671;28;20088;-68
2022/10/13 11:11:29;;;;;;;26.77;24.17;;;;;;;;;;10168074;28;20116;-69
2022/10/13 11:16:33;;;;;;;26.45;21.65;;;;;;;;;;10186442;28;20065;-69
2022/10/13 11:21:48;;;;;;;24.73;22.20;;;;;;;;;;10177745;28;20046;-69
2022/10/13 11:26:44;;;;;;;25.58;21.92;;;;;;;;;;10172891;28;20507;-69
2022/10/13 11:31:48;;;;;;;23.55;20.17;;;;;;;;;;10179345;28;20056;-68
2022/10/13 11:36:48;;;;;;;22.08;19.77;;;;;;;;;;10174115;28;20052;-69
2022/10/13 11:42:10;;;;;;;22.98;20.45;;;;;;;;;;10177783;28;20062;-69
2022/10/13 11:47:14;;;;;;;22.17;19.70;;;;;;;;;;10159215;28;20063;-69
2022/10/13 11:52:21;;;;;;;21.33;18.10;;;;;;;;;;10175234;28;20509;-69
2022/10/13 11:57:19;;;;;;;21.23;18.77;;;;;;;;;;10164515;28;20050;-68
2022/10/13 12:02:16;;;;;;;20.88;17.55;;;;;;;;;;10171245;28;20062;-69
2022/10/13 12:07:14;;;;;;;19.13;16.52;;;;;;;;;;10184861;28;20052;-69
2022/10/13 12:12:14;;;;;;;24.13;18.20;;;;;;;;;;10172176;28;20056;-69
2022/10/13 12:17:28;;;;;;;19.00;17.05;;;;;;;;;;10174068;28;20050;-68
2022/10/13 12:22:25;;;;;;;31.30;17.90;;;;;;;;;;10174852;28;20080;-68
2022/10/13 12:27:22;;;;;;;21.30;18.55;;;;;;;;;;10177447;28;20042;-68
2022/10/13 12:32:19;;;;;;;21.38;16.98;;;;;;;;;;10181652;28;20419;-69
2022/10/13 12:37:25;;;;;;;21.90;16.80;;;;;;;;;;10178170;28;20050;-69
2022/10/13 12:42:25;;;;;;;18.95;16.40;;;;;;;;;;10173568;28;20538;-69
2022/10/13 12:47:44;;;;;;;18.27;16.38;;;;;;;;;;10182397;28;20400;-69
2022/10/13 12:52:41;;;;;;;19.75;17.73;;;;;;;;;;10193749;28;20049;-68
2022/10/13 12:57:37;;;;;;;19.15;17.20;;;;;;;;;;10195593;28;20400;-68
2022/10/13 13:02:34;;;;;;;19.50;17.42;;;;;;;;;;10188924;28;20056;-69
2022/10/13 13:07:31;;;;;;;18.15;15.85;;;;;;;;;;10195192;28;20049;-68
2022/10/13 13:12:28;;;;;;;19.08;17.17;;;;;;;;;;10194937;28;20050;-69
2022/10/13 13:17:26;;;;;;;20.55;18.40;;;;;;;;;;10193910;28;20049;-68
2022/10/13 13:22:42;;;;;;;19.90;17.98;;;;;;;;;;10190428;28;20038;-68
2022/10/13 13:27:39;;;;;;;23.02;18.70;;;;;;;;;;10190938;28;20048;-69
2022/10/13 13:32:35;;;;;;;22.00;18.65;;;;;;;;;;10204088;28;20053;-68
2022/10/13 13:37:36;;;;;;;19.90;18.10;;;;;;;;;;10189200;28;20061;-69
2022/10/13 13:42:33;;;;;;;20.40;18.33;;;;;;;;;;10190015;28;20042;-69
2022/10/13 13:47:30;;;;;;;21.48;17.95;;;;;;;;;;10189729;28;20037;-69
2022/10/13 13:52:26;;;;;;;20.27;18.35;;;;;;;;;;10189189;28;20052;-69
2022/10/13 13:57:23;;;;;;;20.23;18.23;;;;;;;;;;10190254;28;20133;-69
2022/10/13 14:02:20;;;;;;;20.73;18.77;;;;;;;;;;10189439;28;20042;-69
2022/10/13 14:07:16;;;;;;;20.52;18.45;;;;;;;;;;10177695;28;20048;-69
2022/10/13 14:12:13;;;;;;;23.63;20.83;;;;;;;;;;10176936;28;20054;-69
2022/10/13 14:17:09;;;;;;;22.67;20.40;;;;;;;;;;10182170;28;20046;-69
2022/10/13 14:22:06;;;;;;;21.27;18.95;;;;;;;;;;10183430;28;20052;-70
2022/10/13 14:27:07;;;;;;;23.85;20.05;;;;;;;;;;10177807;28;20046;-68
2022/10/13 14:32:04;;;;;;;24.17;18.65;;;;;;;;;;10187597;28;20053;-69
2022/10/13 14:37:00;;;;;;;22.15;19.88;;;;;;;;;;10188215;28;20042;-70
2022/10/13 14:41:56;;;;;;;20.55;18.38;;;;;;;;;;10187182;28;20689;-71
2022/10/13 14:46:52;;;;;;;20.58;18.38;;;;;;;;;;10200603;28;20052;-71
2022/10/13 14:51:49;;;;;;;19.95;17.98;;;;;;;;;;10188100;28;20042;-71
2022/10/13 14:56:45;;;;;;;18.95;17.27;;;;;;;;;;10185121;28;20045;-71
2022/10/13 15:01:42;;;;;;;21.60;17.80;;;;;;;;;;10186093;28;20042;-71
2022/10/13 15:06:38;;;;;;;20.33;18.30;;;;;;;;;;10185473;28;20542;-71
2022/10/13 15:11:35;;;;;;;19.85;17.80;;;;;;;;;;10187104;28;20041;-70
2022/10/13 15:16:32;;;;;;;24.95;18.48;;;;;;;;;;10185256;28;20676;-71
2022/10/13 15:21:28;;;;;;;20.88;18.27;;;;;;;;;;10177398;28;20061;-71
2022/10/13 15:26:25;;;;;;;20.88;18.83;;;;;;;;;;10174403;28;20061;-71
2022/10/13 15:31:21;;;;;;;22.00;19.65;;;;;;;;;;10183324;28;20541;-71
2022/10/13 15:36:18;;;;;;;25.20;20.23;;;;;;;;;;10183758;28;20753;-71
2022/10/13 15:41:15;;;;;;;23.08;20.85;;;;;;;;;;10184728;28;20046;-71
2022/10/13 15:46:19;;;;;;;24.02;21.45;;;;;;;;;;10172738;28;20049;-71
2022/10/13 15:51:18;;;;;;;25.13;22.58;;;;;;;;;;10182961;28;20149;-71
2022/10/13 15:56:15;;;;;;;24.20;22.05;;;;;;;;;;10182277;28;20057;-71
2022/10/13 16:01:12;;;;;;;26.25;23.02;;;;;;;;;;10183309;28;20101;-71
2022/10/13 16:06:09;;;;;;;24.75;22.63;;;;;;;;;;10180845;28;20081;-71
2022/10/13 16:11:07;;;;;;;26.13;23.90;;;;;;;;;;10183326;28;20396;-71
2022/10/13 16:16:04;;;;;;;28.77;23.75;;;;;;;;;;10193298;28;20050;-71
2022/10/13 16:21:06;;;;;;;27.20;24.80;;;;;;;;;;10180222;28;20050;-71
2022/10/13 16:26:03;;;;;;;25.85;23.52;;;;;;;;;;10185015;28;20093;-71
2022/10/13 16:31:04;;;;;;;25.58;23.02;;;;;;;;;;10191851;28;20041;-71
2022/10/13 16:36:04;;;;;;;25.83;23.70;;;;;;;;;;10192104;28;20412;-72
2022/10/13 16:41:04;;;;;;;26.92;24.08;;;;;;;;;;10193685;28;20054;-71
2022/10/13 16:46:02;;;;;;;29.98;25.58;;;;;;;;;;10187388;28;20068;-72
2022/10/13 16:51:03;;;;;;;28.25;24.35;;;;;;;;;;10189158;28;20388;-72
2022/10/13 16:55:59;;;;;;;26.60;24.50;;;;;;;;;;10178117;28;20042;-72
2022/10/13 17:01:00;;;;;;;27.35;25.08;;;;;;;;;;10183078;28;20046;-72
2022/10/13 17:05:57;;;;;;;30.38;28.00;;;;;;;;;;10193190;28;20042;-72
2022/10/13 17:10:53;;;;;;;31.05;28.13;;;;;;;;;;10192508;28;20050;-71
2022/10/13 17:15:54;;;;;;;33.78;30.90;;;;;;;;;;10188820;28;20507;-72
2022/10/13 17:20:55;;;;;;;32.45;29.75;;;;;;;;;;10190012;28;20427;-71
2022/10/13 17:25:52;;;;;;;31.63;29.27;;;;;;;;;;10184048;28;20054;-72
2022/10/13 17:30:57;;;;;;;36.33;32.72;;;;;;;;;;10187194;28;20057;-72
2022/10/13 17:36:00;;;;;;;40.33;36.35;;;;;;;;;;10180962;28;20060;-72
2022/10/13 17:41:01;;;;;;;47.85;43.97;;;;;;;;;;10179083;28;20058;-72
2022/10/13 17:46:10;;;;;;;52.30;48.10;;;;;;;;;;10181422;28;20045;-72
2022/10/13 17:51:27;;;;;;;60.25;55.47;;;;;;;;;;10190323;28;20096;-72
2022/10/13 17:56:23;;;;;;;66.38;61.28;;;;;;;;;;10186529;28;20042;-72
2022/10/13 18:01:21;;;;;;;73.47;68.50;;;;;;;;;;10189610;28;20435;-72
2022/10/13 18:06:18;;;;;;;82.85;77.22;;;;;;;;;;10184370;28;20049;-71
2022/10/13 18:11:16;;;;;;;80.15;74.53;;;;;;;;;;10179863;28;20112;-72
2022/10/13 18:16:14;;;;;;;85.70;79.80;;;;;;;;;;10161149;28;20056;-70
2022/10/13 18:21:11;;;;;;;91.82;85.85;;;;;;;;;;10172426;28;20042;-71
2022/10/13 18:26:18;;;;;;;95.57;89.05;;;;;;;;;;10170589;28;20492;-71
2022/10/13 18:31:20;;;;;;;100.63;93.70;;;;;;;;;;10182833;28;20416;-71
2022/10/13 18:36:43;;;;;;;99.03;92.05;;;;;;;;;;10177424;28;20587;-71
2022/10/13 18:41:39;;;;;;;109.23;101.67;;;;;;;;;;10182145;28;20507;-71
2022/10/13 18:46:36;;;;;;;112.90;105.05;;;;;;;;;;10177085;28;20042;-71
2022/10/13 18:51:33;;;;;;;115.93;108.40;;;;;;;;;;10174871;28;20042;-72
2022/10/13 18:56:32;;;;;;;122.88;114.50;;;;;;;;;;10178735;28;20045;-71
2022/10/13 19:01:29;;;;;;;118.55;110.90;;;;;;;;;;10169314;28;20053;-71
2022/10/13 19:06:27;;;;;;;116.97;109.22;;;;;;;;;;10179348;28;20060;-71
2022/10/13 19:11:23;;;;;;;118.20;110.40;;;;;;;;;;10182708;28;20062;-71
2022/10/13 19:16:21;;;;;;;121.65;113.47;;;;;;;;;;10177143;28;20419;-71
2022/10/13 19:21:18;;;;;;;126.20;117.75;;;;;;;;;;10173654;28;20053;-71
2022/10/13 19:26:15;;;;;;;129.13;120.22;;;;;;;;;;10187319;28;20455;-71
2022/10/13 19:31:14;;;;;;;126.00;117.50;;;;;;;;;;10177526;28;20412;-70
2022/10/13 19:36:18;;;;;;;123.57;115.35;;;;;;;;;;10179741;28;20046;-71
2022/10/13 19:41:15;;;;;;;124.63;116.57;;;;;;;;;;10170197;28;20050;-71
2022/10/13 19:46:13;;;;;;;126.38;117.80;;;;;;;;;;10183214;28;20579;-71
2022/10/13 19:51:10;;;;;;;127.90;119.18;;;;;;;;;;10181829;28;20052;-70
2022/10/13 19:56:07;;;;;;;122.82;114.30;;;;;;;;;;10169148;28;20056;-70
2022/10/13 20:01:04;;;;;;;129.30;120.45;;;;;;;;;;10169790;28;20471;-71
2022/10/13 20:06:04;;;;;;;133.88;124.03;;;;;;;;;;10173056;28;20046;-68
2022/10/13 20:11:05;;;;;;;129.65;121.10;;;;;;;;;;10178117;28;20046;-69
2022/10/13 20:16:08;;;;;;;137.13;128.00;;;;;;;;;;10170298;28;20056;-69
2022/10/13 20:21:06;;;;;;;140.93;131.45;;;;;;;;;;10173685;28;20046;-68
2022/10/13 20:26:03;;;;;;;144.73;134.30;;;;;;;;;;10170798;28;20060;-68
2022/10/13 20:31:01;;;;;;;134.98;126.25;;;;;;;;;;10176957;28;20053;-69
2022/10/13 20:36:01;;;;;;;137.15;128.20;;;;;;;;;;10171925;28;20440;-68
2022/10/13 20:41:05;;;;;;;136.65;127.78;;;;;;;;;;10176815;28;20052;-69
2022/10/13 20:46:03;;;;;;;131.35;122.78;;;;;;;;;;10180858;28;20145;-69
2022/10/13 20:51:04;;;;;;;128.82;120.28;;;;;;;;;;10184631;28;20046;-69
2022/10/13 20:56:01;;;;;;;128.00;119.20;;;;;;;;;;10179609;28;20042;-68
2022/10/13 21:00:57;;;;;;;123.07;114.85;;;;;;;;;;10179788;28;20496;-69
2022/10/13 21:05:54;;;;;;;123.22;115.20;;;;;;;;;;10178774;28;20056;-69
2022/10/13 21:10:50;;;;;;;118.45;110.18;;;;;;;;;;10176230;28;20121;-69
2022/10/13 21:15:46;;;;;;;111.43;103.72;;;;;;;;;;10185427;28;20534;-69
2022/10/13 21:20:42;;;;;;;113.60;105.78;;;;;;;;;;10172721;28;20053;-69
2022/10/13 21:25:39;;;;;;;114.38;106.82;;;;;;;;;;10191429;28;20061;-68
2022/10/13 21:30:35;;;;;;;109.68;102.38;;;;;;;;;;10181265;28;20060;-68
2022/10/13 21:35:33;;;;;;;109.45;102.38;;;;;;;;;;10188619;28;20045;-68
2022/10/13 21:40:30;;;;;;;101.45;94.75;;;;;;;;;;10175222;28;20054;-68
2022/10/13 21:45:26;;;;;;;103.53;96.90;;;;;;;;;;10186703;28;20046;-67
2022/10/13 21:50:22;;;;;;;96.80;90.20;;;;;;;;;;10182052;28;20042;-67
2022/10/13 21:55:18;;;;;;;99.15;92.07;;;;;;;;;;10190888;28;20049;-67
2022/10/13 22:00:14;;;;;;;99.32;92.25;;;;;;;;;;10179622;28;20082;-67
2022/10/13 22:05:11;;;;;;;91.18;85.00;;;;;;;;;;10174437;28;20049;-67
2022/10/13 22:10:07;;;;;;;101.38;94.22;;;;;;;;;;10181276;28;20046;-67
2022/10/13 22:15:04;;;;;;;89.80;83.50;;;;;;;;;;10186549;28;20614;-67
2022/10/13 22:20:00;;;;;;;93.35;86.82;;;;;;;;;;10188692;28;20427;-67
2022/10/13 22:24:56;;;;;;;94.38;87.82;;;;;;;;;;10185616;28;20149;-66
2022/10/13 22:29:53;;;;;;;95.63;88.65;;;;;;;;;;10178901;28;20050;-67
2022/10/13 22:34:49;;;;;;;95.13;87.93;;;;;;;;;;10173506;28;20058;-66
2022/10/13 22:39:45;;;;;;;92.35;86.00;;;;;;;;;;10176167;28;20050;-67
2022/10/13 22:44:41;;;;;;;89.38;83.07;;;;;;;;;;10179547;28;20054;-67
2022/10/13 22:49:38;;;;;;;84.25;78.40;;;;;;;;;;10189440;28;20396;-67
2022/10/13 22:54:34;;;;;;;84.72;79.15;;;;;;;;;;10185294;28;20069;-67
2022/10/13 22:59:30;;;;;;;86.95;80.57;;;;;;;;;;10181845;28;20502;-66
2022/10/13 23:04:26;;;;;;;87.57;80.88;;;;;;;;;;10165923;28;20046;-67
2022/10/13 23:09:23;;;;;;;83.88;78.07;;;;;;;;;;10179377;28;20046;-67
2022/10/13 23:14:19;;;;;;;91.45;85.07;;;;;;;;;;10179801;28;20050;-67
2022/10/13 23:19:15;;;;;;;87.00;81.00;;;;;;;;;;10183815;28;20053;-67
2022/10/13 23:24:11;;;;;;;85.95;80.15;;;;;;;;;;10183113;28;20060;-66
2022/10/13 23:29:08;;;;;;;97.43;90.57;;;;;;;;;;10177491;28;20046;-67
2022/10/13 23:34:04;;;;;;;97.78;90.88;;;;;;;;;;10179987;28;20065;-67
2022/10/13 23:39:03;;;;;;;95.97;89.20;;;;;;;;;;10186667;28;20050;-67
2022/10/13 23:43:59;;;;;;;96.45;89.20;;;;;;;;;;10183332;28;20057;-67
2022/10/13 23:48:56;;;;;;;98.15;91.07;;;;;;;;;;10182856;28;20138;-67
2022/10/13 23:53:52;;;;;;;100.10;92.63;;;;;;;;;;10178259;28;20057;-67
2022/10/13 23:58:49;;;;;;;103.50;95.97;;;;;;;;;;10180268;28;20049;-67
